sensor_id;sensor_type;location;lat;lon;timestamp;P1;durP1;ratioP1;P2;durP2;ratioP2
22983;SDS011;11658;48.908;9.140;2024-03-22T05:02:22;8.67;;;7.87;;
22983;SDS011;11658;48.908;9.140;2024-03-22T05:04:48;8.63;;;7.73;;
22983;SDS011;11658;48.908;9.140;2024-03-22T05:07:14;8.37;;;7.10;;
22983;SDS011;11658;48.908;9.140;2024-03-22T05:09:40;8.97;;;7.60;;
22983;SDS011;11658;48.908;9.140;2024-03-22T05:12:05;8.67;;;7.00;;
22983;SDS011;11658;48.908;9.140;2024-03-22T05:14:31;8.10;;;6.87;;
22983;SDS011;11658;48.908;9.140;2024-03-22T05:16:57;7.93;;;7.13;;
22983;SDS011;11658;48.908;9.140;2024-03-22T05:19:22;10.83;;;7.70;;
22983;SDS011;11658;48.908;9.140;2024-03-22T05:21:49;7.57;;;6.73;;
22983;SDS011;11658;48.908;9.140;2024-03-22T05:24:14;7.80;;;7.03;;
22983;SDS011;11658;48.908;9.140;2024-03-22T05:26:40;7.47;;;6.73;;
22983;SDS011;11658;48.908;9.140;2024-03-22T05:29:05;7.57;;;6.63;;
22983;SDS011;11658;48.908;9.140;2024-03-22T05:31:31;7.63;;;6.47;;
22983;SDS011;11658;48.908;9.140;2024-03-22T05:34:10;7.37;;;6.67;;
22983;SDS011;11658;48.908;9.140;2024-03-22T05:36:35;6.90;;;6.20;;
22983;SDS011;11658;48.908;9.140;2024-03-22T05:39:01;7.03;;;6.33;;
22983;SDS011;11658;48.908;9.140;2024-03-22T05:41:27;8.57;;;6.67;;
22983;SDS011;11658;48.908;9.140;2024-03-22T05:43:53;10.10;;;6.90;;
22983;SDS011;11658;48.908;9.140;2024-03-22T05:46:18;8.43;;;6.60;;
22983;SDS011;11658;48.908;9.140;2024-03-22T05:48:44;7.37;;;6.40;;
22983;SDS011;11658;48.908;9.140;2024-03-22T05:51:09;7.70;;;6.60;;
22983;SDS011;11658;48.908;9.140;2024-03-22T05:53:35;6.50;;;5.90;;
22983;SDS011;11658;48.908;9.140;2024-03-22T05:56:00;7.63;;;6.40;;
22983;SDS011;11658;48.908;9.140;2024-03-22T05:58:26;7.47;;;6.67;;
22983;SDS011;11658;48.908;9.140;2024-03-22T06:00:51;7.70;;;6.90;;
22983;SDS011;11658;48.908;9.140;2024-03-22T06:03:18;6.63;;;5.83;;
22983;SDS011;11658;48.908;9.140;2024-03-22T06:05:44;7.57;;;6.33;;
22983;SDS011;11658;48.908;9.140;2024-03-22T06:08:09;7.00;;;6.03;;
22983;SDS011;11658;48.908;9.140;2024-03-22T06:10:35;8.43;;;6.67;;
22983;SDS011;11658;48.908;9.140;2024-03-22T06:13:00;8.13;;;6.53;;
22983;SDS011;11658;48.908;9.140;2024-03-22T06:15:26;7.63;;;6.63;;
22983;SDS011;11658;48.908;9.140;2024-03-22T06:17:53;8.27;;;6.87;;
22983;SDS011;11658;48.908;9.140;2024-03-22T06:20:18;8.03;;;6.23;;
22983;SDS011;11658;48.908;9.140;2024-03-22T06:22:44;7.90;;;6.67;;
22983;SDS011;11658;48.908;9.140;2024-03-22T06:25:10;8.87;;;7.13;;
22983;SDS011;11658;48.908;9.140;2024-03-22T06:27:35;10.33;;;8.53;;
22983;SDS011;11658;48.908;9.140;2024-03-22T06:30:01;11.00;;;7.73;;
22983;SDS011;11658;48.908;9.140;2024-03-22T06:32:26;10.80;;;7.50;;
22983;SDS011;11658;48.908;9.140;2024-03-22T06:34:52;10.50;;;7.63;;
22983;SDS011;11658;48.908;9.140;2024-03-22T06:37:18;9.07;;;7.60;;
22983;SDS011;11658;48.908;9.140;2024-03-22T06:39:43;9.87;;;7.97;;
22983;SDS011;11658;48.908;9.140;2024-03-22T06:42:09;10.20;;;8.10;;
22983;SDS011;11658;48.908;9.140;2024-03-22T06:44:34;10.07;;;7.87;;
22983;SDS011;11658;48.908;9.140;2024-03-22T06:47:00;11.73;;;8.20;;
22983;SDS011;11658;48.908;9.140;2024-03-22T06:49:26;11.13;;;8.50;;
22983;SDS011;11658;48.908;9.140;2024-03-22T06:51:51;10.30;;;8.50;;
22983;SDS011;11658;48.908;9.140;2024-03-22T06:54:17;9.83;;;7.40;;
22983;SDS011;11658;48.908;9.140;2024-03-22T06:56:43;8.00;;;7.20;;
22983;SDS011;11658;48.908;9.140;2024-03-22T06:59:08;9.60;;;7.40;;
22983;SDS011;11658;48.908;9.140;2024-03-22T07:01:34;8.70;;;7.77;;
22983;SDS011;11658;48.908;9.140;2024-03-22T07:03:59;10.13;;;7.50;;
22983;SDS011;11658;48.908;9.140;2024-03-22T07:06:25;11.47;;;7.90;;
22983;SDS011;11658;48.908;9.140;2024-03-22T07:08:51;7.77;;;6.97;;
22983;SDS011;11658;48.908;9.140;2024-03-22T07:11:16;9.37;;;7.30;;
22983;SDS011;11658;48.908;9.140;2024-03-22T07:13:42;10.50;;;6.90;;
22983;SDS011;11658;48.908;9.140;2024-03-22T07:16:07;8.03;;;6.60;;
22983;SDS011;11658;48.908;9.140;2024-03-22T07:18:33;9.20;;;6.40;;
22983;SDS011;11658;48.908;9.140;2024-03-22T07:20:59;7.53;;;6.03;;
22983;SDS011;11658;48.908;9.140;2024-03-22T07:23:26;7.47;;;6.47;;
22983;SDS011;11658;48.908;9.140;2024-03-22T07:25:52;9.30;;;6.73;;
22983;SDS011;11658;48.908;9.140;2024-03-22T07:28:17;8.73;;;7.03;;
22983;SDS011;11658;48.908;9.140;2024-03-22T07:30:43;8.80;;;7.10;;
22983;SDS011;11658;48.908;9.140;2024-03-22T07:33:12;8.53;;;6.80;;
22983;SDS011;11658;48.908;9.140;2024-03-22T07:35:43;9.00;;;6.83;;
22983;SDS011;11658;48.908;9.140;2024-03-22T07:38:09;8.23;;;6.67;;
22983;SDS011;11658;48.908;9.140;2024-03-22T07:40:35;9.63;;;7.23;;
22983;SDS011;11658;48.908;9.140;2024-03-22T07:43:01;8.90;;;7.53;;
22983;SDS011;11658;48.908;9.140;2024-03-22T07:45:32;9.37;;;7.93;;
22983;SDS011;11658;48.908;9.140;2024-03-22T07:47:59;11.70;;;7.70;;
22983;SDS011;11658;48.908;9.140;2024-03-22T07:50:25;8.50;;;7.70;;
22983;SDS011;11658;48.908;9.140;2024-03-22T07:52:50;10.90;;;7.60;;
22983;SDS011;11658;48.908;9.140;2024-03-22T07:55:16;8.57;;;7.67;;
22983;SDS011;11658;48.908;9.140;2024-03-22T07:57:42;8.17;;;7.37;;
22983;SDS011;11658;48.908;9.140;2024-03-22T08:00:08;11.30;;;7.73;;
22983;SDS011;11658;48.908;9.140;2024-03-22T08:02:35;9.90;;;7.60;;
22983;SDS011;11658;48.908;9.140;2024-03-22T08:05:00;7.33;;;5.93;;
22983;SDS011;11658;48.908;9.140;2024-03-22T08:07:26;8.37;;;6.97;;
22983;SDS011;11658;48.908;9.140;2024-03-22T08:09:52;9.90;;;6.70;;
22983;SDS011;11658;48.908;9.140;2024-03-22T08:12:20;8.43;;;6.80;;
22983;SDS011;11658;48.908;9.140;2024-03-22T08:14:46;11.77;;;7.10;;
22983;SDS011;11658;48.908;9.140;2024-03-22T08:17:12;10.83;;;6.80;;
22983;SDS011;11658;48.908;9.140;2024-03-22T08:19:38;9.17;;;6.03;;
22983;SDS011;11658;48.908;9.140;2024-03-22T08:22:03;8.97;;;6.40;;
22983;SDS011;11658;48.908;9.140;2024-03-22T08:24:29;7.07;;;6.20;;
22983;SDS011;11658;48.908;9.140;2024-03-22T08:26:55;8.17;;;5.80;;
22983;SDS011;11658;48.908;9.140;2024-03-22T08:29:21;8.43;;;5.87;;
22983;SDS011;11658;48.908;9.140;2024-03-22T08:31:46;6.87;;;5.93;;
22983;SDS011;11658;48.908;9.140;2024-03-22T08:34:12;8.80;;;6.60;;
22983;SDS011;11658;48.908;9.140;2024-03-22T08:36:38;7.67;;;6.33;;
22983;SDS011;11658;48.908;9.140;2024-03-22T08:39:04;6.07;;;5.50;;
22983;SDS011;11658;48.908;9.140;2024-03-22T08:41:32;6.17;;;5.63;;
22983;SDS011;11658;48.908;9.140;2024-03-22T08:43:57;7.27;;;5.40;;
22983;SDS011;11658;48.908;9.140;2024-03-22T08:46:23;7.23;;;6.23;;
22983;SDS011;11658;48.908;9.140;2024-03-22T08:48:51;7.37;;;5.70;;
22983;SDS011;11658;48.908;9.140;2024-03-22T08:51:17;12.47;;;5.57;;
22983;SDS011;11658;48.908;9.140;2024-03-22T08:53:43;7.47;;;5.37;;
22983;SDS011;11658;48.908;9.140;2024-03-22T08:56:08;5.87;;;5.00;;
22983;SDS011;11658;48.908;9.140;2024-03-22T08:58:34;6.00;;;4.93;;
22983;SDS011;11658;48.908;9.140;2024-03-22T09:01:00;5.47;;;4.93;;
22983;SDS011;11658;48.908;9.140;2024-03-22T09:03:25;5.97;;;5.43;;
22983;SDS011;11658;48.908;9.140;2024-03-22T09:05:54;5.80;;;5.17;;
22983;SDS011;11658;48.908;9.140;2024-03-22T09:08:20;8.23;;;5.30;;
22983;SDS011;11658;48.908;9.140;2024-03-22T09:10:46;6.47;;;5.20;;
22983;SDS011;11658;48.908;9.140;2024-03-22T09:13:12;7.07;;;5.20;;
22983;SDS011;11658;48.908;9.140;2024-03-22T09:15:38;6.87;;;5.40;;
22983;SDS011;11658;48.908;9.140;2024-03-22T09:18:04;7.50;;;5.70;;
22983;SDS011;11658;48.908;9.140;2024-03-22T09:20:30;8.77;;;5.83;;
22983;SDS011;11658;48.908;9.140;2024-03-22T09:22:56;6.60;;;5.33;;
22983;SDS011;11658;48.908;9.140;2024-03-22T09:25:22;7.30;;;5.33;;
22983;SDS011;11658;48.908;9.140;2024-03-22T09:27:49;5.83;;;5.07;;
22983;SDS011;11658;48.908;9.140;2024-03-22T09:30:15;5.83;;;5.23;;
22983;SDS011;11658;48.908;9.140;2024-03-22T09:32:41;5.90;;;5.13;;
22983;SDS011;11658;48.908;9.140;2024-03-22T09:35:07;6.03;;;4.80;;
22983;SDS011;11658;48.908;9.140;2024-03-22T09:37:33;6.30;;;4.97;;
22983;SDS011;11658;48.908;9.140;2024-03-22T09:39:59;4.67;;;4.23;;
22983;SDS011;11658;48.908;9.140;2024-03-22T09:42:25;4.53;;;4.13;;
22983;SDS011;11658;48.908;9.140;2024-03-22T09:44:53;5.53;;;4.93;;
22983;SDS011;11658;48.908;9.140;2024-03-22T09:47:20;6.50;;;5.17;;
22983;SDS011;11658;48.908;9.140;2024-03-22T09:49:46;6.20;;;4.60;;
22983;SDS011;11658;48.908;9.140;2024-03-22T09:52:14;6.20;;;4.53;;
22983;SDS011;11658;48.908;9.140;2024-03-22T09:54:42;6.73;;;4.57;;
22983;SDS011;11658;48.908;9.140;2024-03-22T09:57:09;4.97;;;4.43;;
22983;SDS011;11658;48.908;9.140;2024-03-22T09:59:46;6.73;;;4.83;;
22983;SDS011;11658;48.908;9.140;2024-03-22T10:02:12;6.97;;;4.80;;
22983;SDS011;11658;48.908;9.140;2024-03-22T10:04:38;5.40;;;4.47;;
22983;SDS011;11658;48.908;9.140;2024-03-22T10:07:05;8.73;;;4.83;;
22983;SDS011;11658;48.908;9.140;2024-03-22T10:09:31;6.27;;;4.90;;
22983;SDS011;11658;48.908;9.140;2024-03-22T10:11:58;6.57;;;4.60;;
22983;SDS011;11658;48.908;9.140;2024-03-22T10:14:24;5.47;;;4.63;;
22983;SDS011;11658;48.908;9.140;2024-03-22T10:16:52;6.57;;;4.80;;
22983;SDS011;11658;48.908;9.140;2024-03-22T10:19:22;5.10;;;4.60;;
22983;SDS011;11658;48.908;9.140;2024-03-22T10:21:58;5.90;;;5.23;;
22983;SDS011;11658;48.908;9.140;2024-03-22T10:24:28;6.00;;;4.53;;
22983;SDS011;11658;48.908;9.140;2024-03-22T10:26:55;5.27;;;4.70;;
22983;SDS011;11658;48.908;9.140;2024-03-22T10:29:22;5.10;;;4.60;;
22983;SDS011;11658;48.908;9.140;2024-03-22T10:31:54;5.33;;;4.80;;
22983;SDS011;11658;48.908;9.140;2024-03-22T10:34:21;7.27;;;4.77;;
22983;SDS011;11658;48.908;9.140;2024-03-22T10:36:47;5.13;;;4.63;;
22983;SDS011;11658;48.908;9.140;2024-03-22T10:39:15;7.40;;;4.63;;
22983;SDS011;11658;48.908;9.140;2024-03-22T10:41:44;5.97;;;4.03;;
22983;SDS011;11658;48.908;9.140;2024-03-22T10:44:10;6.47;;;4.40;;
22983;SDS011;11658;48.908;9.140;2024-03-22T10:46:37;5.57;;;4.00;;
22983;SDS011;11658;48.908;9.140;2024-03-22T10:49:03;5.53;;;3.80;;
22983;SDS011;11658;48.908;9.140;2024-03-22T10:51:31;5.63;;;4.10;;
22983;SDS011;11658;48.908;9.140;2024-03-22T10:53:59;6.43;;;4.10;;
22983;SDS011;11658;48.908;9.140;2024-03-22T10:56:26;6.43;;;4.27;;
22983;SDS011;11658;48.908;9.140;2024-03-22T10:58:52;4.23;;;3.77;;
22983;SDS011;11658;48.908;9.140;2024-03-22T11:01:21;5.17;;;4.00;;
22983;SDS011;11658;48.908;9.140;2024-03-22T11:03:48;6.67;;;4.00;;
22983;SDS011;11658;48.908;9.140;2024-03-22T11:06:17;5.83;;;3.80;;
22983;SDS011;11658;48.908;9.140;2024-03-22T11:08:44;4.33;;;3.63;;
22983;SDS011;11658;48.908;9.140;2024-03-22T11:11:14;5.47;;;3.33;;
22983;SDS011;11658;48.908;9.140;2024-03-22T11:13:43;5.40;;;3.67;;
22983;SDS011;11658;48.908;9.140;2024-03-22T11:16:11;7.00;;;4.20;;
22983;SDS011;11658;48.908;9.140;2024-03-22T11:18:37;4.60;;;3.70;;
22983;SDS011;11658;48.908;9.140;2024-03-22T11:21:03;4.50;;;4.03;;
22983;SDS011;11658;48.908;9.140;2024-03-22T11:23:32;5.28;;;4.20;;
22983;SDS011;11658;48.908;9.140;2024-03-22T11:25:58;4.33;;;3.93;;
22983;SDS011;11658;48.908;9.140;2024-03-22T11:28:24;6.35;;;3.88;;
22983;SDS011;11658;48.908;9.140;2024-03-22T11:30:49;4.80;;;3.70;;
22983;SDS011;11658;48.908;9.140;2024-03-22T11:33:15;6.20;;;4.10;;
22983;SDS011;11658;48.908;9.140;2024-03-22T11:35:41;4.55;;;4.00;;
22983;SDS011;11658;48.908;9.140;2024-03-22T11:38:08;4.97;;;3.63;;
22983;SDS011;11658;48.908;9.140;2024-03-22T11:40:33;4.30;;;2.75;;
22983;SDS011;11658;48.908;9.140;2024-03-22T11:42:59;4.95;;;3.28;;
22983;SDS011;11658;48.908;9.140;2024-03-22T11:45:26;5.28;;;2.72;;
22983;SDS011;11658;48.908;9.140;2024-03-22T11:47:52;6.97;;;2.70;;
22983;SDS011;11658;48.908;9.140;2024-03-22T11:50:18;3.28;;;2.50;;
22983;SDS011;11658;48.908;9.140;2024-03-22T11:52:44;3.33;;;2.55;;
22983;SDS011;11658;48.908;9.140;2024-03-22T11:55:13;2.72;;;2.30;;
22983;SDS011;11658;48.908;9.140;2024-03-22T11:57:39;2.90;;;2.60;;
22983;SDS011;11658;48.908;9.140;2024-03-22T12:00:06;2.97;;;2.50;;
22983;SDS011;11658;48.908;9.140;2024-03-22T12:02:35;3.90;;;2.33;;
22983;SDS011;11658;48.908;9.140;2024-03-22T12:05:01;3.90;;;2.60;;
22983;SDS011;11658;48.908;9.140;2024-03-22T12:07:28;5.03;;;2.78;;
22983;SDS011;11658;48.908;9.140;2024-03-22T12:09:54;4.40;;;2.88;;
22983;SDS011;11658;48.908;9.140;2024-03-22T12:12:21;5.10;;;3.47;;
22983;SDS011;11658;48.908;9.140;2024-03-22T12:14:50;6.23;;;2.90;;
22983;SDS011;11658;48.908;9.140;2024-03-22T12:17:16;3.60;;;2.70;;
22983;SDS011;11658;48.908;9.140;2024-03-22T12:19:42;6.20;;;3.37;;
22983;SDS011;11658;48.908;9.140;2024-03-22T12:22:07;4.67;;;3.10;;
22983;SDS011;11658;48.908;9.140;2024-03-22T12:24:33;5.53;;;3.10;;
22983;SDS011;11658;48.908;9.140;2024-03-22T12:26:58;3.45;;;2.90;;
22983;SDS011;11658;48.908;9.140;2024-03-22T12:29:24;5.75;;;3.22;;
22983;SDS011;11658;48.908;9.140;2024-03-22T12:31:50;5.57;;;3.40;;
22983;SDS011;11658;48.908;9.140;2024-03-22T12:34:16;5.45;;;3.28;;
22983;SDS011;11658;48.908;9.140;2024-03-22T12:36:42;5.10;;;3.20;;
22983;SDS011;11658;48.908;9.140;2024-03-22T12:39:08;5.67;;;3.27;;
22983;SDS011;11658;48.908;9.140;2024-03-22T12:41:34;9.75;;;3.25;;
22983;SDS011;11658;48.908;9.140;2024-03-22T12:44:00;4.70;;;2.78;;
22983;SDS011;11658;48.908;9.140;2024-03-22T12:46:26;5.80;;;3.50;;
22983;SDS011;11658;48.908;9.140;2024-03-22T12:48:52;3.80;;;3.28;;
22983;SDS011;11658;48.908;9.140;2024-03-22T12:51:19;7.63;;;3.47;;
22983;SDS011;11658;48.908;9.140;2024-03-22T12:53:44;5.60;;;3.40;;
22983;SDS011;11658;48.908;9.140;2024-03-22T12:56:10;3.65;;;2.88;;
22983;SDS011;11658;48.908;9.140;2024-03-22T12:58:37;3.45;;;3.03;;
22983;SDS011;11658;48.908;9.140;2024-03-22T13:01:03;4.82;;;3.00;;
22983;SDS011;11658;48.908;9.140;2024-03-22T13:03:30;4.80;;;3.20;;
22983;SDS011;11658;48.908;9.140;2024-03-22T13:05:57;4.45;;;2.90;;
22983;SDS011;11658;48.908;9.140;2024-03-22T13:08:22;5.97;;;2.78;;
22983;SDS011;11658;48.908;9.140;2024-03-22T13:10:48;3.33;;;2.72;;
22983;SDS011;11658;48.908;9.140;2024-03-22T13:13:14;5.72;;;3.00;;
22983;SDS011;11658;48.908;9.140;2024-03-22T13:15:41;4.13;;;2.90;;
22983;SDS011;11658;48.908;9.140;2024-03-22T13:18:11;5.53;;;3.10;;
22983;SDS011;11658;48.908;9.140;2024-03-22T13:20:37;4.32;;;2.60;;
22983;SDS011;11658;48.908;9.140;2024-03-22T13:23:03;3.28;;;2.45;;
22983;SDS011;11658;48.908;9.140;2024-03-22T13:25:29;3.58;;;2.40;;
22983;SDS011;11658;48.908;9.140;2024-03-22T13:27:55;3.92;;;3.28;;
22983;SDS011;11658;48.908;9.140;2024-03-22T13:30:21;5.18;;;3.15;;
22983;SDS011;11658;48.908;9.140;2024-03-22T13:32:46;4.22;;;3.05;;
22983;SDS011;11658;48.908;9.140;2024-03-22T13:35:12;7.00;;;3.50;;
22983;SDS011;11658;48.908;9.140;2024-03-22T13:37:39;4.25;;;2.88;;
22983;SDS011;11658;48.908;9.140;2024-03-22T13:40:06;4.47;;;3.15;;
22983;SDS011;11658;48.908;9.140;2024-03-22T13:42:32;3.17;;;2.75;;
22983;SDS011;11658;48.908;9.140;2024-03-22T13:44:58;3.72;;;2.50;;
22983;SDS011;11658;48.908;9.140;2024-03-22T13:47:24;6.20;;;2.47;;
22983;SDS011;11658;48.908;9.140;2024-03-22T13:49:52;5.28;;;3.10;;
22983;SDS011;11658;48.908;9.140;2024-03-22T13:52:17;3.95;;;2.75;;
22983;SDS011;11658;48.908;9.140;2024-03-22T13:54:43;3.60;;;2.58;;
22983;SDS011;11658;48.908;9.140;2024-03-22T13:57:08;3.72;;;2.40;;
22983;SDS011;11658;48.908;9.140;2024-03-22T13:59:34;6.80;;;1.83;;
22983;SDS011;11658;48.908;9.140;2024-03-22T14:02:01;3.90;;;1.60;;
22983;SDS011;11658;48.908;9.140;2024-03-22T14:04:26;3.10;;;1.70;;
22983;SDS011;11658;48.908;9.140;2024-03-22T14:06:54;3.22;;;1.30;;
22983;SDS011;11658;48.908;9.140;2024-03-22T14:09:20;1.73;;;1.20;;
22983;SDS011;11658;48.908;9.140;2024-03-22T14:11:45;3.50;;;1.37;;
22983;SDS011;11658;48.908;9.140;2024-03-22T14:14:13;3.47;;;1.40;;
22983;SDS011;11658;48.908;9.140;2024-03-22T14:16:40;1.70;;;1.30;;
22983;SDS011;11658;48.908;9.140;2024-03-22T14:19:09;2.53;;;1.50;;
22983;SDS011;11658;48.908;9.140;2024-03-22T14:21:35;1.47;;;1.17;;
22983;SDS011;11658;48.908;9.140;2024-03-22T14:24:03;4.10;;;1.60;;
22983;SDS011;11658;48.908;9.140;2024-03-22T14:26:29;3.67;;;1.60;;
22983;SDS011;11658;48.908;9.140;2024-03-22T14:28:55;3.47;;;1.60;;
22983;SDS011;11658;48.908;9.140;2024-03-22T14:31:21;2.33;;;1.40;;
22983;SDS011;11658;48.908;9.140;2024-03-22T14:33:47;3.93;;;1.37;;
22983;SDS011;11658;48.908;9.140;2024-03-22T14:36:13;2.80;;;1.50;;
22983;SDS011;11658;48.908;9.140;2024-03-22T14:38:38;2.07;;;1.43;;
22983;SDS011;11658;48.908;9.140;2024-03-22T14:41:04;1.30;;;1.20;;
22983;SDS011;11658;48.908;9.140;2024-03-22T14:43:31;2.77;;;1.50;;
22983;SDS011;11658;48.908;9.140;2024-03-22T14:45:59;2.17;;;1.40;;
22983;SDS011;11658;48.908;9.140;2024-03-22T14:48:26;2.70;;;1.20;;
22983;SDS011;11658;48.908;9.140;2024-03-22T14:50:52;5.83;;;1.60;;
22983;SDS011;11658;48.908;9.140;2024-03-22T14:53:18;4.83;;;1.70;;
22983;SDS011;11658;48.908;9.140;2024-03-22T14:55:57;2.30;;;1.33;;
22983;SDS011;11658;48.908;9.140;2024-03-22T14:58:29;2.00;;;1.50;;
22983;SDS011;11658;48.908;9.140;2024-03-22T15:00:59;2.60;;;1.60;;
22983;SDS011;11658;48.908;9.140;2024-03-22T15:03:26;3.17;;;1.70;;
22983;SDS011;11658;48.908;9.140;2024-03-22T15:05:52;4.40;;;1.97;;
22983;SDS011;11658;48.908;9.140;2024-03-22T15:08:20;6.10;;;1.80;;
22983;SDS011;11658;48.908;9.140;2024-03-22T15:10:46;4.53;;;1.87;;
22983;SDS011;11658;48.908;9.140;2024-03-22T15:13:12;6.37;;;1.83;;
22983;SDS011;11658;48.908;9.140;2024-03-22T15:15:39;2.73;;;1.93;;
22983;SDS011;11658;48.908;9.140;2024-03-22T15:18:05;3.67;;;2.00;;
22983;SDS011;11658;48.908;9.140;2024-03-22T15:20:31;2.13;;;1.90;;
22983;SDS011;11658;48.908;9.140;2024-03-22T15:22:57;3.17;;;1.80;;
22983;SDS011;11658;48.908;9.140;2024-03-22T15:25:23;2.47;;;1.90;;
22983;SDS011;11658;48.908;9.140;2024-03-22T15:27:49;3.70;;;1.90;;
22983;SDS011;11658;48.908;9.140;2024-03-22T15:30:16;2.33;;;1.80;;
22983;SDS011;11658;48.908;9.140;2024-03-22T15:32:41;3.37;;;2.13;;
22983;SDS011;11658;48.908;9.140;2024-03-22T15:35:07;3.43;;;2.10;;
22983;SDS011;11658;48.908;9.140;2024-03-22T15:37:37;2.83;;;2.00;;
22983;SDS011;11658;48.908;9.140;2024-03-22T15:40:04;2.73;;;2.20;;
22983;SDS011;11658;48.908;9.140;2024-03-22T15:42:30;4.60;;;2.10;;
22983;SDS011;11658;48.908;9.140;2024-03-22T15:44:56;2.13;;;1.93;;
22983;SDS011;11658;48.908;9.140;2024-03-22T15:47:27;2.77;;;2.17;;
22983;SDS011;11658;48.908;9.140;2024-03-22T15:49:53;2.97;;;2.30;;
22983;SDS011;11658;48.908;9.140;2024-03-22T15:52:18;3.67;;;1.90;;
22983;SDS011;11658;48.908;9.140;2024-03-22T15:54:44;2.53;;;2.33;;
22983;SDS011;11658;48.908;9.140;2024-03-22T15:57:10;3.30;;;2.10;;
22983;SDS011;11658;48.908;9.140;2024-03-22T15:59:35;2.57;;;2.37;;
22983;SDS011;11658;48.908;9.140;2024-03-22T16:02:01;3.83;;;2.63;;
22983;SDS011;11658;48.908;9.140;2024-03-22T16:04:27;5.37;;;2.30;;
22983;SDS011;11658;48.908;9.140;2024-03-22T16:06:52;3.90;;;2.90;;
22983;SDS011;11658;48.908;9.140;2024-03-22T16:09:18;2.50;;;2.30;;
22983;SDS011;11658;48.908;9.140;2024-03-22T16:11:44;3.20;;;2.50;;
22983;SDS011;11658;48.908;9.140;2024-03-22T16:14:10;3.00;;;2.40;;
22983;SDS011;11658;48.908;9.140;2024-03-22T16:16:35;4.53;;;2.40;;
22983;SDS011;11658;48.908;9.140;2024-03-22T16:19:01;3.13;;;2.07;;
22983;SDS011;11658;48.908;9.140;2024-03-22T16:21:26;5.53;;;2.77;;
22983;SDS011;11658;48.908;9.140;2024-03-22T16:23:52;3.03;;;2.30;;
22983;SDS011;11658;48.908;9.140;2024-03-22T16:26:18;2.00;;;1.80;;
22983;SDS011;11658;48.908;9.140;2024-03-22T16:28:43;3.83;;;2.50;;
22983;SDS011;11658;48.908;9.140;2024-03-22T16:31:09;2.53;;;2.10;;
22983;SDS011;11658;48.908;9.140;2024-03-22T16:33:35;3.20;;;2.40;;
22983;SDS011;11658;48.908;9.140;2024-03-22T16:36:01;2.43;;;2.10;;
22983;SDS011;11658;48.908;9.140;2024-03-22T16:38:26;5.17;;;2.90;;
22983;SDS011;11658;48.908;9.140;2024-03-22T16:40:52;2.47;;;2.20;;
22983;SDS011;11658;48.908;9.140;2024-03-22T16:43:17;4.63;;;2.50;;
22983;SDS011;11658;48.908;9.140;2024-03-22T16:45:44;3.20;;;2.53;;
22983;SDS011;11658;48.908;9.140;2024-03-22T16:48:09;3.90;;;2.90;;
22983;SDS011;11658;48.908;9.140;2024-03-22T16:50:35;3.00;;;2.70;;
22983;SDS011;11658;48.908;9.140;2024-03-22T16:53:00;3.40;;;2.83;;
22983;SDS011;11658;48.908;9.140;2024-03-22T16:55:26;3.47;;;2.50;;
22983;SDS011;11658;48.908;9.140;2024-03-22T16:57:51;3.83;;;2.53;;
22983;SDS011;11658;48.908;9.140;2024-03-22T17:00:18;2.63;;;2.30;;
22983;SDS011;11658;48.908;9.140;2024-03-22T17:02:43;4.80;;;2.60;;
22983;SDS011;11658;48.908;9.140;2024-03-22T17:05:10;2.90;;;2.30;;
22983;SDS011;11658;48.908;9.140;2024-03-22T17:07:37;3.13;;;2.20;;
22983;SDS011;11658;48.908;9.140;2024-03-22T17:10:03;2.87;;;2.17;;
22983;SDS011;11658;48.908;9.140;2024-03-22T17:12:29;2.40;;;2.03;;
22983;SDS011;11658;48.908;9.140;2024-03-22T17:14:54;4.00;;;2.40;;
22983;SDS011;11658;48.908;9.140;2024-03-22T17:17:20;5.40;;;2.47;;
22983;SDS011;11658;48.908;9.140;2024-03-22T17:19:47;3.93;;;2.80;;
22983;SDS011;11658;48.908;9.140;2024-03-22T17:22:13;5.67;;;3.40;;
22983;SDS011;11658;48.908;9.140;2024-03-22T17:24:38;2.70;;;2.40;;
22983;SDS011;11658;48.908;9.140;2024-03-22T17:27:04;6.37;;;4.47;;
22983;SDS011;11658;48.908;9.140;2024-03-22T17:29:30;3.93;;;2.90;;
22983;SDS011;11658;48.908;9.140;2024-03-22T17:31:55;2.63;;;2.43;;
22983;SDS011;11658;48.908;9.140;2024-03-22T17:34:21;4.43;;;2.27;;
22983;SDS011;11658;48.908;9.140;2024-03-22T17:36:47;2.67;;;2.23;;
22983;SDS011;11658;48.908;9.140;2024-03-22T17:39:13;4.10;;;2.20;;
22983;SDS011;11658;48.908;9.140;2024-03-22T17:41:39;3.70;;;2.50;;
22983;SDS011;11658;48.908;9.140;2024-03-22T17:44:05;3.30;;;2.30;;
22983;SDS011;11658;48.908;9.140;2024-03-22T17:46:32;4.07;;;2.27;;
22983;SDS011;11658;48.908;9.140;2024-03-22T17:48:57;3.70;;;2.43;;
22983;SDS011;11658;48.908;9.140;2024-03-22T17:51:23;2.87;;;2.40;;
22983;SDS011;11658;48.908;9.140;2024-03-22T17:53:49;3.60;;;2.60;;
22983;SDS011;11658;48.908;9.140;2024-03-22T17:56:15;4.57;;;2.83;;
22983;SDS011;11658;48.908;9.140;2024-03-22T17:58:42;6.17;;;3.27;;
22983;SDS011;11658;48.908;9.140;2024-03-22T18:01:09;4.90;;;3.63;;
22983;SDS011;11658;48.908;9.140;2024-03-22T18:03:35;5.37;;;3.50;;
22983;SDS011;11658;48.908;9.140;2024-03-22T18:06:00;8.47;;;4.33;;
22983;SDS011;11658;48.908;9.140;2024-03-22T18:08:29;5.47;;;4.10;;
22983;SDS011;11658;48.908;9.140;2024-03-22T18:10:58;5.47;;;4.33;;
22983;SDS011;11658;48.908;9.140;2024-03-22T18:13:25;6.37;;;4.20;;
22983;SDS011;11658;48.908;9.140;2024-03-22T18:15:51;8.97;;;5.17;;
22983;SDS011;11658;48.908;9.140;2024-03-22T18:18:17;5.97;;;4.30;;
22983;SDS011;11658;48.908;9.140;2024-03-22T18:20:43;6.07;;;5.07;;
22983;SDS011;11658;48.908;9.140;2024-03-22T18:23:14;5.60;;;4.50;;
22983;SDS011;11658;48.908;9.140;2024-03-22T18:25:47;7.60;;;4.80;;
22983;SDS011;11658;48.908;9.140;2024-03-22T18:28:13;7.07;;;4.70;;
22983;SDS011;11658;48.908;9.140;2024-03-22T18:30:39;7.03;;;4.70;;
22983;SDS011;11658;48.908;9.140;2024-03-22T18:33:05;6.63;;;5.10;;
22983;SDS011;11658;48.908;9.140;2024-03-22T18:35:31;5.50;;;4.53;;
22983;SDS011;11658;48.908;9.140;2024-03-22T18:37:57;5.63;;;4.80;;
22983;SDS011;11658;48.908;9.140;2024-03-22T18:40:23;6.23;;;5.03;;
22983;SDS011;11658;48.908;9.140;2024-03-22T18:42:49;6.27;;;4.87;;
22983;SDS011;11658;48.908;9.140;2024-03-22T18:45:14;7.93;;;4.73;;
22983;SDS011;11658;48.908;9.140;2024-03-22T18:47:40;7.83;;;4.13;;
22983;SDS011;11658;48.908;9.140;2024-03-22T18:50:06;8.07;;;4.30;;
22983;SDS011;11658;48.908;9.140;2024-03-22T18:52:34;8.13;;;4.47;;
22983;SDS011;11658;48.908;9.140;2024-03-22T18:55:02;4.27;;;3.77;;
22983;SDS011;11658;48.908;9.140;2024-03-22T18:57:28;6.57;;;4.10;;
22983;SDS011;11658;48.908;9.140;2024-03-22T18:59:53;4.97;;;4.03;;
22983;SDS011;11658;48.908;9.140;2024-03-22T19:02:19;4.33;;;3.90;;
22983;SDS011;11658;48.908;9.140;2024-03-22T19:04:45;6.40;;;4.20;;
22983;SDS011;11658;48.908;9.140;2024-03-22T19:07:11;6.90;;;4.20;;
22983;SDS011;11658;48.908;9.140;2024-03-22T19:09:36;6.10;;;4.37;;
22983;SDS011;11658;48.908;9.140;2024-03-22T19:12:02;6.70;;;4.40;;
22983;SDS011;11658;48.908;9.140;2024-03-22T19:14:30;5.13;;;4.20;;
22983;SDS011;11658;48.908;9.140;2024-03-22T19:16:56;6.87;;;3.87;;
22983;SDS011;11658;48.908;9.140;2024-03-22T19:19:21;5.67;;;4.40;;
22983;SDS011;11658;48.908;9.140;2024-03-22T19:21:47;6.00;;;4.00;;
22983;SDS011;11658;48.908;9.140;2024-03-22T19:24:14;4.57;;;3.87;;
22983;SDS011;11658;48.908;9.140;2024-03-22T19:26:39;5.07;;;4.40;;
22983;SDS011;11658;48.908;9.140;2024-03-22T19:29:14;5.67;;;3.90;;
22983;SDS011;11658;48.908;9.140;2024-03-22T19:31:40;5.60;;;4.87;;
22983;SDS011;11658;48.908;9.140;2024-03-22T19:34:09;6.50;;;5.37;;
22983;SDS011;11658;48.908;9.140;2024-03-22T19:36:38;6.70;;;5.60;;
22983;SDS011;11658;48.908;9.140;2024-03-22T19:39:04;6.27;;;5.67;;
22983;SDS011;11658;48.908;9.140;2024-03-22T19:41:34;8.23;;;6.17;;
22983;SDS011;11658;48.908;9.140;2024-03-22T19:44:01;8.63;;;6.57;;